Terminal Aerodrome Forecast
Issued by NWS

Home | Current Version | Previous Version | Text Only | Print | Product List | Glossary Off
Versions: 1 2 3 4 5 6 7 8 9 10 11 12 13

943
FTUS45 KGGW 200523
TAFSDY
TAF
KSDY 200523Z 2006/2106 03004KT P6SM BKN100
     FM201200 VRB03KT P6SM BKN025
     FM201700 31006KT P6SM BKN050
     FM202100 33009KT P6SM SCT090
     FM210200 02010KT P6SM BKN130=

USA.gov is the U.S. government's official web portal to all federal, state and local government web resources and services.